Flight Track Log - Related Links

Times and Time Zones

All times are in EDT time to prevent confusion due to time zone crossing. See the RPA4907 flight status page for this flight to view local times or setup timezone preferences in your user account.

Time Position Orientation Groundspeed Altitude Reporting Facility
EDT Latitude Longitude Course Direction KTS MPH feet Rate Location/Type
Mon 08:20:58 AM 38.9500 -77.5000 North 184 212 1,300  Level Potomac TRACON
Mon 08:21:58 AM 39.0000 -77.5667 314° West 231 266 2,800 1,663 Climbing Potomac TRACON
Mon 08:23:00 AM 39.2438 -77.4500 North  Level FlightAware Approximate
Mon 08:24:00 AM 39.3472 -77.4500 North  Level FlightAware Approximate
Mon 08:24:20 AM 39.1469 -77.5881 354° North 256 295 6,900  Level Washington Center
Mon 08:25:00 AM 39.4507 -77.4500 North  Level FlightAware Approximate
Mon 08:25:21 AM 39.2244 -77.5689 11° North 266 306 8,700  Level Washington Center
Mon 08:26:00 AM 39.5542 -77.4500 North  Level FlightAware Approximate
Mon 08:26:21 AM 39.3039 -77.5603 North 278 320 10,400  Level Washington Center
Mon 08:27:19 AM 39.3828 -77.5758 351° North 278 320 12,000 1,563 Climbing Washington Center
Mon 08:28:20 AM 39.4622 -77.5564 11° North 278 320 13,500 1,339 Climbing Washington Center
Mon 08:29:20 AM 39.5400 -77.5103 25° Northeast 283 326 14,700 1,190 Climbing Washington Center
Mon 08:30:21 AM 39.6178 -77.4692 22° Northeast 293 337 15,900 839 Climbing Washington Center
Mon 08:30:53 AM 39.6617 -77.4511 18° North 308 354 16,000 65 Climbing New York Center
Mon 08:31:54 AM 39.7469 -77.4539 359° North 328 377 16,000  Level New York Center
Mon 08:32:51 AM 39.8556 -77.4156 15° North 350 403 16,000  Level New York Center
Mon 08:33:52 AM 39.9417 -77.3669 23° Northeast 377 434 16,000 197 Level New York Center
Mon 08:34:53 AM 40.0511 -77.3094 22° Northeast 382 440 16,400 397 Climbing New York Center
Mon 08:35:53 AM 40.1369 -77.2631 22° Northeast 382 440 16,800 305 Climbing New York Center
Mon 08:36:51 AM 40.2422 -77.2078 22° Northeast 371 427 17,000 101 Climbing New York Center
Mon 08:37:52 AM 40.3281 -77.1611 23° Northeast 363 418 17,000  Level New York Center
Mon 08:38:53 AM 40.4356 -77.1031 22° Northeast 363 418 17,000  Level New York Center
Mon 08:39:53 AM 40.5344 -77.0492 22° Northeast 368 423 17,000  Level New York Center
Mon 08:40:53 AM 40.6350 -76.9956 22° Northeast 375 432 17,000  Level New York Center
Mon 08:41:51 AM 40.7339 -76.9414 23° Northeast 382 440 17,000  Level New York Center
Mon 08:42:51 AM 40.8325 -76.8872 23° Northeast 382 440 17,000  Level New York Center
Mon 08:43:52 AM 40.9333 -76.8331 22° Northeast 388 447 17,000  Level New York Center
Mon 08:44:53 AM 41.0319 -76.7758 24° Northeast 383 441 17,000  Level New York Center
Mon 08:45:53 AM 41.1306 -76.7211 23° Northeast 383 441 17,000  Level New York Center
Mon 08:46:52 AM 41.2314 -76.6639 23° Northeast 383 441 17,000  Level New York Center
Mon 08:47:52 AM 41.3300 -76.6061 24° Northeast 383 441 17,000  Level New York Center
Mon 08:48:53 AM 41.4181 -76.5558 23° Northeast 383 441 17,000  Level New York Center
Mon 08:49:53 AM 41.5031 -76.4772 35° Northeast 383 441 17,000  Level New York Center
Mon 08:50:51 AM 41.5633 -76.3464 58° Northeast 370 426 17,000  Level New York Center
Mon 08:51:51 AM 41.6231 -76.2292 56° Northeast 370 426 17,000  Level New York Center
Mon 08:52:52 AM 41.6803 -76.1117 57° Northeast 375 432 17,000  Level New York Center
Mon 08:53:53 AM 41.7331 -76.0047 56° Northeast 375 432 17,000  Level New York Center
Mon 08:56:19 AM 41.8828 -75.6917 57° Northeast 397 457 17,000  Level Boston Center
Mon 08:57:19 AM 41.9403 -75.5689 58° Northeast 392 451 17,000  Level Boston Center
Mon 08:58:19 AM 41.9978 -75.4489 57° Northeast 392 451 17,000  Level Boston Center
Mon 08:59:19 AM 42.0531 -75.3258 59° Northeast 387 445 17,000  Level Boston Center
Mon 09:00:19 AM 42.1103 -75.2053 57° Northeast 382 440 17,000  Level Boston Center
Mon 09:01:19 AM 42.1608 -75.0953 58° Northeast 382 440 17,000  Level Boston Center
Mon 09:02:19 AM 42.2200 -74.9744 56° Northeast 382 440 17,000  Level Boston Center
Mon 09:02:52 AM 42.2528 -74.8972 60° Northeast 393 452 17,000 -136 Level Boston Center
Mon 09:03:47 AM 42.3075 -74.7842 57° Northeast 396 456 16,800 -897 Descending Boston Center
Mon 09:04:19 AM 42.3403 -74.7069 60° Northeast 389 448 15,700 -1,761 Descending Boston Center
Mon 09:05:19 AM 42.3947 -74.5908 58° Northeast 384 442 14,100 -1,750 Descending Boston Center
Mon 09:06:19 AM 42.4489 -74.4800 56° Northeast 360 414 12,200 -1,800 Descending Boston Center
Mon 09:06:49 AM 42.4808 -74.4417 42° Northeast 325 374 11,400 -1,600 Descending Boston Center
Mon 09:07:19 AM 42.5106 -74.3975 48° Northeast 333 383 10,600 -1,672 Descending Boston Center
Mon 09:07:50 AM 42.5428 -74.3536 45° Northeast 311 358 9,700 -1,648 Descending Boston Center
Mon 09:08:50 AM 42.5981 -74.2792 45° Northeast 290 334 8,100 -1,537 Descending Boston Center
Mon 09:09:51 AM 42.6536 -74.1989 47° Northeast 275 316 6,600 -1,388 Descending Boston Center
Mon 09:10:51 AM 42.7047 -74.1269 46° Northeast 268 308 5,300 -1,240 Descending Boston Center
Mon 09:11:52 AM 42.7536 -74.0575 46° Northeast 253 291 4,100 -1,131 Descending Boston Center
Mon 09:12:53 AM 42.8025 -73.9936 44° Northeast 238 274 3,000 -595 Descending Boston Center
Mon 09:13:53 AM 42.8469 -73.9325 45° Northeast 230 265 2,900 -100 Descending Boston Center

Login

Don't have an account? Register now (free) for customized features, flight alerts, and more!